Time,TemperatureF,DewpointF,PressureIn,WindDirection,WindDirectionDegrees,WindSpeedMPH,WindSpeedGustMPH,Humidity,HourlyPrecipIn,Conditions,Clouds,dailyrainin,SolarRadiationWatts/m^2,SoftwareType,DateUTC
2013-04-16 00:22:00,34.0,15.0,-100.00,NW,311,5.0,13.0,46,0.00,,,0.00,227.000000,,2013-04-16 00:22:00,
2013-04-16 00:32:00,34.0,15.0,-100.00,NW,311,5.0,13.0,46,0.00,,,0.00,227.000000,,2013-04-16 00:32:00,
2013-04-16 00:42:00,34.0,15.0,-100.00,NW,311,5.0,13.0,46,0.00,,,0.00,227.000000,,2013-04-16 00:42:00,
2013-04-16 00:52:00,34.0,15.0,-100.00,NW,311,5.0,13.0,46,0.00,,,0.00,227.000000,,2013-04-16 00:52:00,
2013-04-16 01:22:00,30.0,20.0,-100.00,West,281,4.0,14.0,65,0.00,,,0.00,97.000000,,2013-04-16 01:22:00,
2013-04-16 01:32:00,30.0,20.0,-100.00,West,281,4.0,14.0,65,0.00,,,0.00,97.000000,,2013-04-16 01:32:00,
2013-04-16 01:42:00,30.0,20.0,-100.00,West,281,4.0,14.0,65,0.00,,,0.00,97.000000,,2013-04-16 01:42:00,
2013-04-16 01:52:00,30.0,20.0,-100.00,West,281,4.0,14.0,65,0.00,,,0.00,97.000000,,2013-04-16 01:52:00,
2013-04-16 02:22:00,28.0,19.0,-100.00,SW,227,5.0,10.0,69,0.00,,,0.00,21.000000,,2013-04-16 02:22:00,
2013-04-16 02:32:00,28.0,19.0,-100.00,SW,227,5.0,10.0,69,0.00,,,0.00,21.000000,,2013-04-16 02:32:00,
2013-04-16 02:42:00,28.0,19.0,-100.00,SW,227,5.0,10.0,69,0.00,,,0.00,21.000000,,2013-04-16 02:42:00,
2013-04-16 02:52:00,28.0,19.0,-100.00,SW,227,5.0,10.0,69,0.00,,,0.00,21.000000,,2013-04-16 02:52:00,
2013-04-16 03:22:00,26.0,18.0,-100.00,SSW,194,3.0,12.0,71,0.00,,,0.00,0.000000,,2013-04-16 03:22:00,
2013-04-16 03:33:00,26.0,18.0,-100.00,SSW,194,3.0,12.0,71,0.00,,,0.00,0.000000,,2013-04-16 03:33:00,
2013-04-16 03:43:00,26.0,18.0,-100.00,SSW,194,3.0,12.0,71,0.00,,,0.00,0.000000,,2013-04-16 03:43:00,
2013-04-16 03:52:00,26.0,18.0,-100.00,SSW,194,3.0,12.0,71,0.00,,,0.00,0.000000,,2013-04-16 03:52:00,
2013-04-16 04:23:00,25.0,18.0,-100.00,South,173,3.0,10.0,75,0.00,,,0.00,0.000000,,2013-04-16 04:23:00,
2013-04-16 04:33:00,25.0,18.0,-100.00,South,173,3.0,10.0,75,0.00,,,0.00,0.000000,,2013-04-16 04:33:00,
2013-04-16 04:42:00,25.0,18.0,-100.00,South,173,3.0,10.0,75,0.00,,,0.00,0.000000,,2013-04-16 04:42:00,
2013-04-16 04:52:00,25.0,18.0,-100.00,South,173,3.0,10.0,75,0.00,,,0.00,0.000000,,2013-04-16 04:52:00,
2013-04-16 05:22:00,23.0,18.0,-100.00,WNW,301,0.0,9.0,80,0.00,,,0.00,0.000000,,2013-04-16 05:22:00,
2013-04-16 05:32:00,23.0,18.0,-100.00,WNW,301,0.0,9.0,80,0.00,,,0.00,0.000000,,2013-04-16 05:32:00,
2013-04-16 05:42:00,23.0,18.0,-100.00,WNW,301,0.0,9.0,80,0.00,,,0.00,0.000000,,2013-04-16 05:42:00,
2013-04-16 05:52:00,23.0,18.0,-100.00,WNW,301,0.0,9.0,80,0.00,,,0.00,0.000000,,2013-04-16 05:52:00,
2013-04-16 06:22:00,23.0,16.0,-100.00,South,187,4.0,8.0,75,0.00,,,0.00,0.000000,,2013-04-16 06:22:00,
2013-04-16 06:32:00,23.0,16.0,-100.00,South,187,4.0,8.0,75,0.00,,,0.00,0.000000,,2013-04-16 06:32:00,
2013-04-16 06:42:00,23.0,16.0,-100.00,South,187,4.0,8.0,75,0.00,,,0.00,0.000000,,2013-04-16 06:42:00,
2013-04-16 06:52:00,23.0,16.0,-100.00,South,187,4.0,8.0,75,0.00,,,0.00,0.000000,,2013-04-16 06:52:00,
2013-04-16 07:22:00,23.0,17.0,-100.00,SW,217,5.0,11.0,79,0.00,,,0.00,0.000000,,2013-04-16 07:22:00,
2013-04-16 07:32:00,23.0,17.0,-100.00,SW,217,5.0,11.0,79,0.00,,,0.00,0.000000,,2013-04-16 07:32:00,
2013-04-16 07:42:00,23.0,17.0,-100.00,SW,217,5.0,11.0,79,0.00,,,0.00,0.000000,,2013-04-16 07:42:00,
2013-04-16 07:53:00,23.0,17.0,-100.00,SW,217,5.0,11.0,79,0.00,,,0.00,0.000000,,2013-04-16 07:53:00,
2013-04-16 08:22:00,23.0,18.0,-100.00,South,184,6.0,10.0,80,0.00,,,0.00,0.000000,,2013-04-16 08:22:00,
2013-04-16 08:32:00,23.0,18.0,-100.00,South,184,6.0,10.0,80,0.00,,,0.00,0.000000,,2013-04-16 08:32:00,
2013-04-16 08:42:00,23.0,18.0,-100.00,South,184,6.0,10.0,80,0.00,,,0.00,0.000000,,2013-04-16 08:42:00,
2013-04-16 08:52:00,23.0,18.0,-100.00,South,184,6.0,10.0,80,0.00,,,0.00,0.000000,,2013-04-16 08:52:00,
2013-04-16 09:22:00,23.0,18.0,-100.00,South,185,7.0,12.0,80,0.00,,,0.00,0.000000,,2013-04-16 09:22:00,
2013-04-16 09:33:00,23.0,18.0,-100.00,South,185,7.0,12.0,80,0.00,,,0.00,0.000000,,2013-04-16 09:33:00,
2013-04-16 09:42:00,23.0,18.0,-100.00,South,185,7.0,12.0,80,0.00,,,0.00,0.000000,,2013-04-16 09:42:00,
2013-04-16 09:52:00,23.0,18.0,-100.00,South,185,7.0,12.0,80,0.00,,,0.00,0.000000,,2013-04-16 09:52:00,
2013-04-16 10:23:00,23.0,17.0,-100.00,SSW,193,2.0,10.0,79,0.00,,,0.00,0.000000,,2013-04-16 10:23:00,
2013-04-16 10:33:00,23.0,17.0,-100.00,SSW,193,2.0,10.0,79,0.00,,,0.00,0.000000,,2013-04-16 10:33:00,
2013-04-16 10:42:00,23.0,17.0,-100.00,SSW,193,2.0,10.0,79,0.00,,,0.00,0.000000,,2013-04-16 10:42:00,
2013-04-16 10:52:00,23.0,17.0,-100.00,SSW,193,2.0,10.0,79,0.00,,,0.00,0.000000,,2013-04-16 10:52:00,
2013-04-16 11:22:00,24.0,18.0,-100.00,SE,139,2.0,8.0,78,0.00,,,0.00,0.000000,,2013-04-16 11:22:00,
2013-04-16 11:32:00,24.0,18.0,-100.00,SE,139,2.0,8.0,78,0.00,,,0.00,0.000000,,2013-04-16 11:32:00,
2013-04-16 11:42:00,24.0,18.0,-100.00,SE,139,2.0,8.0,78,0.00,,,0.00,0.000000,,2013-04-16 11:42:00,
2013-04-16 11:52:00,24.0,18.0,-100.00,SE,139,2.0,8.0,78,0.00,,,0.00,0.000000,,2013-04-16 11:52:00,
2013-04-16 12:22:00,23.0,19.0,-100.00,East,88,2.0,6.0,83,0.00,,,0.00,0.000000,,2013-04-16 12:22:00,
2013-04-16 12:32:00,23.0,19.0,-100.00,East,88,2.0,6.0,83,0.00,,,0.00,0.000000,,2013-04-16 12:32:00,
2013-04-16 12:42:00,23.0,19.0,-100.00,East,88,2.0,6.0,83,0.00,,,0.00,0.000000,,2013-04-16 12:42:00,
2013-04-16 12:52:00,23.0,19.0,-100.00,East,88,2.0,6.0,83,0.00,,,0.00,0.000000,,2013-04-16 12:52:00,
2013-04-16 13:22:00,23.0,19.0,-100.00,South,180,3.0,7.0,85,0.00,,,0.00,7.000000,,2013-04-16 13:22:00,
2013-04-16 13:32:00,23.0,19.0,-100.00,South,180,3.0,7.0,85,0.00,,,0.00,7.000000,,2013-04-16 13:32:00,
2013-04-16 13:42:00,23.0,19.0,-100.00,South,180,3.0,7.0,85,0.00,,,0.00,7.000000,,2013-04-16 13:42:00,
2013-04-16 13:52:00,23.0,19.0,-100.00,South,180,3.0,7.0,85,0.00,,,0.00,7.000000,,2013-04-16 13:52:00,
2013-04-16 14:22:00,23.0,20.0,-100.00,South,187,3.0,8.0,87,0.00,,,0.00,32.000000,,2013-04-16 14:22:00,
2013-04-16 14:32:00,23.0,20.0,-100.00,South,187,3.0,8.0,87,0.00,,,0.00,32.000000,,2013-04-16 14:32:00,
2013-04-16 14:42:00,23.0,20.0,-100.00,South,187,3.0,8.0,87,0.00,,,0.00,32.000000,,2013-04-16 14:42:00,
2013-04-16 14:52:00,23.0,20.0,-100.00,South,187,3.0,8.0,87,0.00,,,0.00,32.000000,,2013-04-16 14:52:00,
2013-04-16 15:22:00,23.0,19.0,-100.00,SSE,165,4.0,10.0,86,0.00,,,0.00,65.000000,,2013-04-16 15:22:00,
2013-04-16 15:33:00,23.0,19.0,-100.00,SSE,165,4.0,10.0,86,0.00,,,0.00,65.000000,,2013-04-16 15:33:00,
2013-04-16 15:43:00,23.0,19.0,-100.00,SSE,165,4.0,10.0,86,0.00,,,0.00,65.000000,,2013-04-16 15:43:00,
2013-04-16 15:53:00,23.0,19.0,-100.00,SSE,165,4.0,10.0,86,0.00,,,0.00,65.000000,,2013-04-16 15:53:00,
2013-04-16 16:23:00,24.0,20.0,-100.00,WNW,301,6.0,13.0,83,0.00,,,0.00,191.000000,,2013-04-16 16:23:00,
2013-04-16 16:32:00,24.0,20.0,-100.00,WNW,301,6.0,13.0,83,0.00,,,0.00,191.000000,,2013-04-16 16:32:00,
2013-04-16 16:42:00,24.0,20.0,-100.00,WNW,301,6.0,13.0,83,0.00,,,0.00,191.000000,,2013-04-16 16:42:00,
2013-04-16 16:52:00,24.0,20.0,-100.00,WNW,301,6.0,13.0,83,0.00,,,0.00,191.000000,,2013-04-16 16:52:00,
2013-04-16 17:22:00,26.0,20.0,-100.00,SSE,158,7.0,16.0,77,0.00,,,0.00,419.000000,,2013-04-16 17:22:00,
2013-04-16 17:32:00,26.0,20.0,-100.00,SSE,158,7.0,16.0,77,0.00,,,0.00,419.000000,,2013-04-16 17:32:00,
2013-04-16 17:43:00,26.0,20.0,-100.00,SSE,158,7.0,16.0,77,0.00,,,0.00,419.000000,,2013-04-16 17:43:00,
2013-04-16 17:52:00,26.0,20.0,-100.00,SSE,158,7.0,16.0,77,0.00,,,0.00,419.000000,,2013-04-16 17:52:00,
2013-04-16 18:22:00,25.0,20.0,-100.00,ENE,74,8.0,17.0,80,0.02,,,0.02,405.000000,,2013-04-16 18:22:00,
2013-04-16 18:32:00,25.0,20.0,-100.00,ENE,74,8.0,17.0,80,0.02,,,0.02,405.000000,,2013-04-16 18:32:00,
2013-04-16 18:42:00,25.0,20.0,-100.00,ENE,74,8.0,17.0,80,0.02,,,0.02,405.000000,,2013-04-16 18:42:00,
2013-04-16 18:52:00,25.0,20.0,-100.00,ENE,74,8.0,17.0,80,0.02,,,0.02,405.000000,,2013-04-16 18:52:00,
2013-04-16 19:22:00,25.0,19.0,-100.00,ENE,76,8.0,18.0,79,0.03,,,0.05,337.000000,,2013-04-16 19:22:00,
2013-04-16 19:32:00,25.0,19.0,-100.00,ENE,76,8.0,18.0,79,0.03,,,0.05,337.000000,,2013-04-16 19:32:00,
2013-04-16 19:42:00,25.0,19.0,-100.00,ENE,76,8.0,18.0,79,0.03,,,0.05,337.000000,,2013-04-16 19:42:00,
2013-04-16 19:52:00,25.0,19.0,-100.00,ENE,76,8.0,18.0,79,0.03,,,0.05,337.000000,,2013-04-16 19:52:00,
2013-04-16 20:22:00,25.0,19.0,-100.00,East,87,10.0,25.0,79,0.02,,,0.07,408.000000,,2013-04-16 20:22:00,
2013-04-16 20:32:00,25.0,19.0,-100.00,East,87,10.0,25.0,79,0.02,,,0.07,408.000000,,2013-04-16 20:32:00,
2013-04-16 20:42:00,25.0,19.0,-100.00,East,87,10.0,25.0,79,0.02,,,0.07,408.000000,,2013-04-16 20:42:00,
2013-04-16 20:52:00,25.0,19.0,-100.00,East,87,10.0,25.0,79,0.02,,,0.07,408.000000,,2013-04-16 20:52:00,
2013-04-16 21:22:00,25.0,20.0,-100.00,ENE,75,9.0,25.0,82,0.00,,,0.07,273.000000,,2013-04-16 21:22:00,
2013-04-16 21:32:00,25.0,20.0,-100.00,ENE,75,9.0,25.0,82,0.00,,,0.07,273.000000,,2013-04-16 21:32:00,
2013-04-16 21:43:00,25.0,20.0,-100.00,ENE,75,9.0,25.0,82,0.00,,,0.07,273.000000,,2013-04-16 21:43:00,
2013-04-16 21:52:00,25.0,20.0,-100.00,ENE,75,9.0,25.0,82,0.00,,,0.07,273.000000,,2013-04-16 21:52:00,
2013-04-16 22:22:00,24.0,20.0,-100.00,ENE,77,8.0,20.0,83,0.00,,,0.07,176.000000,,2013-04-16 22:22:00,
2013-04-16 22:33:00,24.0,20.0,-100.00,ENE,77,8.0,20.0,83,0.00,,,0.07,176.000000,,2013-04-16 22:33:00,
2013-04-16 22:42:00,24.0,20.0,-100.00,ENE,77,8.0,20.0,83,0.00,,,0.07,176.000000,,2013-04-16 22:42:00,
2013-04-16 22:52:00,24.0,20.0,-100.00,ENE,77,8.0,20.0,83,0.00,,,0.07,176.000000,,2013-04-16 22:52:00,
2013-04-16 23:22:00,24.0,19.0,-100.00,ENE,75,9.0,21.0,82,0.00,,,0.07,163.000000,,2013-04-16 23:22:00,
2013-04-16 23:32:00,24.0,19.0,-100.00,ENE,75,9.0,21.0,82,0.00,,,0.07,163.000000,,2013-04-16 23:32:00,
2013-04-16 23:42:00,24.0,19.0,-100.00,ENE,75,9.0,21.0,82,0.00,,,0.07,163.000000,,2013-04-16 23:42:00,
2013-04-16 23:52:00,24.0,19.0,-100.00,ENE,75,9.0,21.0,82,0.00,,,0.07,163.000000,,2013-04-16 23:52:00,